sensor_id;sensor_type;location;lat;lon;timestamp;P1;durP1;ratioP1;P2;durP2;ratioP2
46407;SDS011;32110;45.724;21.276;2023-03-21T00:00:26;39.25;;;20.67;;
46407;SDS011;32110;45.724;21.276;2023-03-21T00:02:51;36.03;;;19.83;;
46407;SDS011;32110;45.724;21.276;2023-03-21T00:05:17;38.03;;;20.50;;
46407;SDS011;32110;45.724;21.276;2023-03-21T00:07:44;37.72;;;20.08;;
46407;SDS011;32110;45.724;21.276;2023-03-21T00:10:10;35.58;;;19.50;;
46407;SDS011;32110;45.724;21.276;2023-03-21T00:12:35;31.80;;;19.35;;
46407;SDS011;32110;45.724;21.276;2023-03-21T00:15:05;37.38;;;20.42;;
46407;SDS011;32110;45.724;21.276;2023-03-21T00:17:31;37.92;;;20.42;;
46407;SDS011;32110;45.724;21.276;2023-03-21T00:19:59;36.25;;;21.13;;
46407;SDS011;32110;45.724;21.276;2023-03-21T00:22:25;37.15;;;19.90;;
46407;SDS011;32110;45.724;21.276;2023-03-21T00:24:51;36.55;;;19.80;;
46407;SDS011;32110;45.724;21.276;2023-03-21T00:27:16;33.20;;;20.03;;
46407;SDS011;32110;45.724;21.276;2023-03-21T00:29:44;38.78;;;20.25;;
46407;SDS011;32110;45.724;21.276;2023-03-21T00:32:09;34.35;;;19.85;;
46407;SDS011;32110;45.724;21.276;2023-03-21T00:34:34;39.43;;;20.50;;
46407;SDS011;32110;45.724;21.276;2023-03-21T00:37:02;37.58;;;20.60;;
46407;SDS011;32110;45.724;21.276;2023-03-21T00:39:27;37.42;;;21.20;;
46407;SDS011;32110;45.724;21.276;2023-03-21T00:41:52;35.95;;;20.50;;
46407;SDS011;32110;45.724;21.276;2023-03-21T00:44:18;36.83;;;20.70;;
46407;SDS011;32110;45.724;21.276;2023-03-21T00:46:43;33.53;;;19.77;;
46407;SDS011;32110;45.724;21.276;2023-03-21T00:49:08;37.05;;;20.65;;
46407;SDS011;32110;45.724;21.276;2023-03-21T00:51:33;40.10;;;19.73;;
46407;SDS011;32110;45.724;21.276;2023-03-21T00:53:58;37.03;;;20.23;;
46407;SDS011;32110;45.724;21.276;2023-03-21T00:56:24;37.05;;;20.52;;
46407;SDS011;32110;45.724;21.276;2023-03-21T00:58:49;35.97;;;20.27;;
46407;SDS011;32110;45.724;21.276;2023-03-21T01:01:15;35.35;;;20.30;;
46407;SDS011;32110;45.724;21.276;2023-03-21T01:03:40;37.50;;;21.55;;
46407;SDS011;32110;45.724;21.276;2023-03-21T01:06:15;43.42;;;21.45;;
46407;SDS011;32110;45.724;21.276;2023-03-21T01:08:43;38.50;;;20.98;;
46407;SDS011;32110;45.724;21.276;2023-03-21T01:11:13;30.27;;;17.92;;
46407;SDS011;32110;45.724;21.276;2023-03-21T01:13:39;36.35;;;21.48;;
46407;SDS011;32110;45.724;21.276;2023-03-21T01:16:05;44.75;;;25.00;;
46407;SDS011;32110;45.724;21.276;2023-03-21T01:18:31;47.60;;;26.25;;
46407;SDS011;32110;45.724;21.276;2023-03-21T01:20:57;46.92;;;25.23;;
46407;SDS011;32110;45.724;21.276;2023-03-21T01:23:23;45.85;;;25.85;;
46407;SDS011;32110;45.724;21.276;2023-03-21T01:25:49;43.13;;;25.80;;
46407;SDS011;32110;45.724;21.276;2023-03-21T01:28:15;42.65;;;24.90;;
46407;SDS011;32110;45.724;21.276;2023-03-21T01:30:47;47.88;;;25.75;;
46407;SDS011;32110;45.724;21.276;2023-03-21T01:33:14;47.65;;;26.13;;
46407;SDS011;32110;45.724;21.276;2023-03-21T01:35:39;42.95;;;24.95;;
46407;SDS011;32110;45.724;21.276;2023-03-21T01:38:04;41.27;;;24.20;;
46407;SDS011;32110;45.724;21.276;2023-03-21T01:40:30;43.95;;;24.20;;
46407;SDS011;32110;45.724;21.276;2023-03-21T01:42:55;39.17;;;23.25;;
46407;SDS011;32110;45.724;21.276;2023-03-21T01:48:04;43.97;;;24.05;;
46407;SDS011;32110;45.724;21.276;2023-03-21T01:50:30;49.28;;;22.92;;
46407;SDS011;32110;45.724;21.276;2023-03-21T01:52:55;40.92;;;22.73;;
46407;SDS011;32110;45.724;21.276;2023-03-21T01:55:20;41.47;;;23.45;;
46407;SDS011;32110;45.724;21.276;2023-03-21T01:57:46;44.97;;;24.13;;
46407;SDS011;32110;45.724;21.276;2023-03-21T02:00:13;40.97;;;22.83;;
46407;SDS011;32110;45.724;21.276;2023-03-21T02:02:40;44.05;;;22.90;;
46407;SDS011;32110;45.724;21.276;2023-03-21T02:07:44;40.08;;;21.35;;
46407;SDS011;32110;45.724;21.276;2023-03-21T02:10:10;43.28;;;23.90;;
46407;SDS011;32110;45.724;21.276;2023-03-21T02:12:36;41.83;;;22.70;;
46407;SDS011;32110;45.724;21.276;2023-03-21T02:15:03;43.35;;;22.95;;
46407;SDS011;32110;45.724;21.276;2023-03-21T02:17:49;40.80;;;23.23;;
46407;SDS011;32110;45.724;21.276;2023-03-21T02:20:52;38.65;;;21.63;;
46407;SDS011;32110;45.724;21.276;2023-03-21T02:26:03;36.28;;;21.42;;
46407;SDS011;32110;45.724;21.276;2023-03-21T02:38:53;33.63;;;20.83;;
46407;SDS011;32110;45.724;21.276;2023-03-21T02:46:21;39.78;;;21.30;;
46407;SDS011;32110;45.724;21.276;2023-03-21T02:48:59;35.75;;;20.83;;
46407;SDS011;32110;45.724;21.276;2023-03-21T02:51:27;36.78;;;21.02;;
46407;SDS011;32110;45.724;21.276;2023-03-21T02:53:54;40.65;;;21.02;;
46407;SDS011;32110;45.724;21.276;2023-03-21T02:56:20;36.78;;;21.15;;
46407;SDS011;32110;45.724;21.276;2023-03-21T02:58:47;35.40;;;20.42;;
46407;SDS011;32110;45.724;21.276;2023-03-21T03:01:13;39.63;;;21.83;;
46407;SDS011;32110;45.724;21.276;2023-03-21T03:03:38;35.23;;;20.27;;
46407;SDS011;32110;45.724;21.276;2023-03-21T03:06:06;37.42;;;22.35;;
46407;SDS011;32110;45.724;21.276;2023-03-21T03:18:51;36.13;;;21.55;;
46407;SDS011;32110;45.724;21.276;2023-03-21T03:21:19;40.38;;;22.48;;
46407;SDS011;32110;45.724;21.276;2023-03-21T03:23:49;36.20;;;21.52;;
46407;SDS011;32110;45.724;21.276;2023-03-21T03:26:23;40.28;;;21.85;;
46407;SDS011;32110;45.724;21.276;2023-03-21T03:28:55;39.08;;;22.05;;
46407;SDS011;32110;45.724;21.276;2023-03-21T03:31:24;35.17;;;21.13;;
46407;SDS011;32110;45.724;21.276;2023-03-21T03:33:51;37.23;;;21.37;;
46407;SDS011;32110;45.724;21.276;2023-03-21T03:36:18;41.33;;;24.25;;
46407;SDS011;32110;45.724;21.276;2023-03-21T03:38:45;56.25;;;28.10;;
46407;SDS011;32110;45.724;21.276;2023-03-21T03:41:15;39.55;;;22.52;;
46407;SDS011;32110;45.724;21.276;2023-03-21T03:43:44;34.00;;;21.10;;
46407;SDS011;32110;45.724;21.276;2023-03-21T03:46:13;36.85;;;21.95;;
46407;SDS011;32110;45.724;21.276;2023-03-21T03:48:42;37.73;;;21.77;;
46407;SDS011;32110;45.724;21.276;2023-03-21T03:51:12;37.95;;;20.42;;
46407;SDS011;32110;45.724;21.276;2023-03-21T03:53:41;33.45;;;21.10;;
46407;SDS011;32110;45.724;21.276;2023-03-21T03:56:08;38.58;;;21.15;;
46407;SDS011;32110;45.724;21.276;2023-03-21T03:58:35;43.10;;;21.98;;
46407;SDS011;32110;45.724;21.276;2023-03-21T04:01:03;37.67;;;21.98;;
46407;SDS011;32110;45.724;21.276;2023-03-21T04:03:28;33.50;;;20.55;;
46407;SDS011;32110;45.724;21.276;2023-03-21T04:05:54;40.35;;;23.08;;
46407;SDS011;32110;45.724;21.276;2023-03-21T04:08:19;37.90;;;22.75;;
46407;SDS011;32110;45.724;21.276;2023-03-21T04:10:47;41.13;;;23.38;;
46407;SDS011;32110;45.724;21.276;2023-03-21T04:13:13;36.17;;;23.10;;
46407;SDS011;32110;45.724;21.276;2023-03-21T04:15:38;36.35;;;21.75;;
46407;SDS011;32110;45.724;21.276;2023-03-21T04:18:03;45.73;;;27.70;;
46407;SDS011;32110;45.724;21.276;2023-03-21T04:20:29;39.53;;;21.85;;
46407;SDS011;32110;45.724;21.276;2023-03-21T04:22:54;36.70;;;22.00;;
46407;SDS011;32110;45.724;21.276;2023-03-21T04:25:20;41.65;;;21.90;;
46407;SDS011;32110;45.724;21.276;2023-03-21T04:27:45;39.17;;;23.33;;
46407;SDS011;32110;45.724;21.276;2023-03-21T04:30:12;42.83;;;24.92;;
46407;SDS011;32110;45.724;21.276;2023-03-21T04:32:38;43.08;;;25.92;;
46407;SDS011;32110;45.724;21.276;2023-03-21T04:35:07;39.75;;;24.92;;
46407;SDS011;32110;45.724;21.276;2023-03-21T04:37:34;39.50;;;23.73;;
46407;SDS011;32110;45.724;21.276;2023-03-21T04:39:59;41.15;;;23.88;;
46407;SDS011;32110;45.724;21.276;2023-03-21T04:42:26;40.95;;;22.58;;
46407;SDS011;32110;45.724;21.276;2023-03-21T04:44:51;39.47;;;22.93;;
46407;SDS011;32110;45.724;21.276;2023-03-21T04:47:17;37.00;;;22.83;;
46407;SDS011;32110;45.724;21.276;2023-03-21T04:49:44;37.38;;;22.95;;
46407;SDS011;32110;45.724;21.276;2023-03-21T04:52:12;39.90;;;22.58;;
46407;SDS011;32110;45.724;21.276;2023-03-21T04:54:37;40.47;;;23.67;;
46407;SDS011;32110;45.724;21.276;2023-03-21T04:57:02;38.87;;;22.80;;
46407;SDS011;32110;45.724;21.276;2023-03-21T04:59:28;38.67;;;23.83;;
46407;SDS011;32110;45.724;21.276;2023-03-21T05:01:54;45.58;;;24.80;;
46407;SDS011;32110;45.724;21.276;2023-03-21T05:04:20;45.88;;;24.17;;
46407;SDS011;32110;45.724;21.276;2023-03-21T05:06:46;44.40;;;24.23;;
46407;SDS011;32110;45.724;21.276;2023-03-21T05:09:12;47.50;;;24.83;;
46407;SDS011;32110;45.724;21.276;2023-03-21T05:11:38;40.15;;;24.23;;
46407;SDS011;32110;45.724;21.276;2023-03-21T05:14:04;42.45;;;24.35;;
46407;SDS011;32110;45.724;21.276;2023-03-21T05:16:30;40.45;;;24.05;;
46407;SDS011;32110;45.724;21.276;2023-03-21T05:18:56;44.60;;;25.03;;
46407;SDS011;32110;45.724;21.276;2023-03-21T05:21:23;44.53;;;25.08;;
46407;SDS011;32110;45.724;21.276;2023-03-21T05:23:49;45.65;;;25.80;;
46407;SDS011;32110;45.724;21.276;2023-03-21T05:26:19;63.10;;;31.58;;
46407;SDS011;32110;45.724;21.276;2023-03-21T05:28:44;63.05;;;29.67;;
46407;SDS011;32110;45.724;21.276;2023-03-21T05:31:12;109.05;;;38.72;;
46407;SDS011;32110;45.724;21.276;2023-03-21T05:33:40;66.75;;;31.05;;
46407;SDS011;32110;45.724;21.276;2023-03-21T05:36:05;64.05;;;31.60;;
46407;SDS011;32110;45.724;21.276;2023-03-21T05:38:30;54.08;;;27.52;;
46407;SDS011;32110;45.724;21.276;2023-03-21T05:40:56;50.35;;;26.00;;
46407;SDS011;32110;45.724;21.276;2023-03-21T05:43:21;45.07;;;25.67;;
46407;SDS011;32110;45.724;21.276;2023-03-21T05:45:46;49.53;;;25.57;;
46407;SDS011;32110;45.724;21.276;2023-03-21T05:48:12;47.70;;;25.65;;
46407;SDS011;32110;45.724;21.276;2023-03-21T05:50:37;44.88;;;25.83;;
46407;SDS011;32110;45.724;21.276;2023-03-21T05:53:03;45.05;;;25.98;;
46407;SDS011;32110;45.724;21.276;2023-03-21T05:55:28;45.47;;;25.83;;
46407;SDS011;32110;45.724;21.276;2023-03-21T05:57:53;45.63;;;25.63;;
46407;SDS011;32110;45.724;21.276;2023-03-21T06:00:18;44.67;;;25.00;;
46407;SDS011;32110;45.724;21.276;2023-03-21T06:02:46;51.88;;;26.90;;
46407;SDS011;32110;45.724;21.276;2023-03-21T06:05:11;51.53;;;25.55;;
46407;SDS011;32110;45.724;21.276;2023-03-21T06:07:36;53.77;;;26.73;;
46407;SDS011;32110;45.724;21.276;2023-03-21T06:10:03;46.10;;;26.55;;
46407;SDS011;32110;45.724;21.276;2023-03-21T06:12:28;48.55;;;27.42;;
46407;SDS011;32110;45.724;21.276;2023-03-21T06:14:54;44.58;;;26.83;;
46407;SDS011;32110;45.724;21.276;2023-03-21T06:17:19;53.60;;;29.55;;
46407;SDS011;32110;45.724;21.276;2023-03-21T06:19:45;59.53;;;31.73;;
46407;SDS011;32110;45.724;21.276;2023-03-21T06:22:11;53.15;;;28.45;;
46407;SDS011;32110;45.724;21.276;2023-03-21T06:24:37;51.05;;;27.20;;
46407;SDS011;32110;45.724;21.276;2023-03-21T06:27:02;49.78;;;28.73;;
46407;SDS011;32110;45.724;21.276;2023-03-21T06:29:28;55.05;;;29.30;;
46407;SDS011;32110;45.724;21.276;2023-03-21T06:31:53;56.97;;;29.88;;
46407;SDS011;32110;45.724;21.276;2023-03-21T06:34:18;54.88;;;27.60;;
46407;SDS011;32110;45.724;21.276;2023-03-21T06:36:44;51.13;;;28.45;;
46407;SDS011;32110;45.724;21.276;2023-03-21T06:39:10;56.83;;;29.90;;
46407;SDS011;32110;45.724;21.276;2023-03-21T06:41:37;59.13;;;29.02;;
46407;SDS011;32110;45.724;21.276;2023-03-21T06:44:03;51.15;;;29.08;;
46407;SDS011;32110;45.724;21.276;2023-03-21T06:46:28;54.15;;;28.10;;
46407;SDS011;32110;45.724;21.276;2023-03-21T06:48:54;53.50;;;30.25;;
46407;SDS011;32110;45.724;21.276;2023-03-21T06:51:20;61.03;;;30.08;;
46407;SDS011;32110;45.724;21.276;2023-03-21T06:53:45;50.95;;;29.15;;
46407;SDS011;32110;45.724;21.276;2023-03-21T06:56:11;49.90;;;28.33;;
46407;SDS011;32110;45.724;21.276;2023-03-21T06:58:38;44.88;;;27.25;;
46407;SDS011;32110;45.724;21.276;2023-03-21T07:01:04;55.22;;;27.65;;
46407;SDS011;32110;45.724;21.276;2023-03-21T07:03:30;45.88;;;25.95;;
46407;SDS011;32110;45.724;21.276;2023-03-21T07:05:55;46.97;;;26.20;;
46407;SDS011;32110;45.724;21.276;2023-03-21T07:08:22;44.00;;;25.55;;
46407;SDS011;32110;45.724;21.276;2023-03-21T07:10:47;41.70;;;25.85;;
46407;SDS011;32110;45.724;21.276;2023-03-21T07:13:13;48.65;;;25.33;;
46407;SDS011;32110;45.724;21.276;2023-03-21T07:15:38;44.10;;;25.65;;
46407;SDS011;32110;45.724;21.276;2023-03-21T07:18:05;44.42;;;25.30;;
46407;SDS011;32110;45.724;21.276;2023-03-21T07:20:32;43.95;;;25.63;;
46407;SDS011;32110;45.724;21.276;2023-03-21T07:22:58;45.05;;;24.77;;
46407;SDS011;32110;45.724;21.276;2023-03-21T07:25:24;38.72;;;23.02;;
46407;SDS011;32110;45.724;21.276;2023-03-21T07:27:50;40.03;;;24.00;;
46407;SDS011;32110;45.724;21.276;2023-03-21T07:30:16;43.97;;;24.05;;
46407;SDS011;32110;45.724;21.276;2023-03-21T07:32:42;40.88;;;22.30;;
46407;SDS011;32110;45.724;21.276;2023-03-21T07:35:10;40.58;;;23.23;;
46407;SDS011;32110;45.724;21.276;2023-03-21T07:37:37;40.13;;;22.55;;
46407;SDS011;32110;45.724;21.276;2023-03-21T07:40:03;37.78;;;22.42;;
46407;SDS011;32110;45.724;21.276;2023-03-21T07:42:35;39.97;;;22.35;;
46407;SDS011;32110;45.724;21.276;2023-03-21T07:45:01;38.38;;;22.35;;
46407;SDS011;32110;45.724;21.276;2023-03-21T07:47:29;36.60;;;20.73;;
46407;SDS011;32110;45.724;21.276;2023-03-21T07:49:55;41.83;;;22.08;;
46407;SDS011;32110;45.724;21.276;2023-03-21T07:52:20;38.22;;;21.95;;
46407;SDS011;32110;45.724;21.276;2023-03-21T07:54:46;39.63;;;22.30;;
46407;SDS011;32110;45.724;21.276;2023-03-21T07:57:11;34.63;;;20.20;;
46407;SDS011;32110;45.724;21.276;2023-03-21T07:59:36;39.63;;;20.95;;
46407;SDS011;32110;45.724;21.276;2023-03-21T08:02:02;35.40;;;21.48;;
46407;SDS011;32110;45.724;21.276;2023-03-21T08:04:27;38.97;;;21.88;;
46407;SDS011;32110;45.724;21.276;2023-03-21T08:06:53;40.53;;;22.17;;
46407;SDS011;32110;45.724;21.276;2023-03-21T08:09:18;38.90;;;21.58;;
46407;SDS011;32110;45.724;21.276;2023-03-21T08:11:44;39.72;;;22.92;;
46407;SDS011;32110;45.724;21.276;2023-03-21T08:14:09;40.90;;;23.30;;
46407;SDS011;32110;45.724;21.276;2023-03-21T08:16:35;38.72;;;23.17;;
46407;SDS011;32110;45.724;21.276;2023-03-21T08:19:00;44.35;;;23.02;;
46407;SDS011;32110;45.724;21.276;2023-03-21T08:21:26;43.92;;;23.77;;
46407;SDS011;32110;45.724;21.276;2023-03-21T08:23:51;40.92;;;24.20;;
46407;SDS011;32110;45.724;21.276;2023-03-21T08:26:17;45.00;;;25.35;;
46407;SDS011;32110;45.724;21.276;2023-03-21T08:28:43;38.20;;;23.75;;
46407;SDS011;32110;45.724;21.276;2023-03-21T08:31:10;44.08;;;23.50;;
46407;SDS011;32110;45.724;21.276;2023-03-21T08:33:37;45.85;;;25.05;;
46407;SDS011;32110;45.724;21.276;2023-03-21T08:36:03;51.40;;;25.23;;
46407;SDS011;32110;45.724;21.276;2023-03-21T08:38:30;36.67;;;22.58;;
46407;SDS011;32110;45.724;21.276;2023-03-21T08:40:57;40.47;;;23.67;;
46407;SDS011;32110;45.724;21.276;2023-03-21T08:43:24;41.20;;;22.65;;
46407;SDS011;32110;45.724;21.276;2023-03-21T08:45:50;42.40;;;22.67;;
46407;SDS011;32110;45.724;21.276;2023-03-21T08:48:16;35.10;;;22.27;;
46407;SDS011;32110;45.724;21.276;2023-03-21T08:50:41;33.53;;;19.80;;
46407;SDS011;32110;45.724;21.276;2023-03-21T08:53:07;38.30;;;21.90;;
46407;SDS011;32110;45.724;21.276;2023-03-21T08:55:32;38.85;;;22.15;;
46407;SDS011;32110;45.724;21.276;2023-03-21T08:57:59;33.90;;;20.25;;
46407;SDS011;32110;45.724;21.276;2023-03-21T09:00:25;39.08;;;20.67;;
46407;SDS011;32110;45.724;21.276;2023-03-21T09:02:51;36.25;;;21.38;;
46407;SDS011;32110;45.724;21.276;2023-03-21T09:05:18;39.28;;;21.90;;
46407;SDS011;32110;45.724;21.276;2023-03-21T09:07:44;40.17;;;21.98;;
46407;SDS011;32110;45.724;21.276;2023-03-21T09:10:15;37.75;;;22.65;;
46407;SDS011;32110;45.724;21.276;2023-03-21T09:12:41;38.80;;;22.23;;
46407;SDS011;32110;45.724;21.276;2023-03-21T09:15:07;36.50;;;21.83;;
46407;SDS011;32110;45.724;21.276;2023-03-21T09:17:33;42.08;;;21.60;;
46407;SDS011;32110;45.724;21.276;2023-03-21T09:19:58;37.63;;;20.83;;
46407;SDS011;32110;45.724;21.276;2023-03-21T09:22:25;37.83;;;21.00;;
46407;SDS011;32110;45.724;21.276;2023-03-21T09:24:51;36.83;;;22.63;;
46407;SDS011;32110;45.724;21.276;2023-03-21T09:27:17;35.90;;;20.08;;
46407;SDS011;32110;45.724;21.276;2023-03-21T09:29:45;37.97;;;21.25;;
46407;SDS011;32110;45.724;21.276;2023-03-21T09:32:10;31.90;;;19.83;;
46407;SDS011;32110;45.724;21.276;2023-03-21T09:34:38;33.83;;;21.05;;
46407;SDS011;32110;45.724;21.276;2023-03-21T09:37:07;30.83;;;19.15;;
46407;SDS011;32110;45.724;21.276;2023-03-21T09:39:41;36.03;;;20.60;;
46407;SDS011;32110;45.724;21.276;2023-03-21T09:42:18;35.65;;;21.05;;
46407;SDS011;32110;45.724;21.276;2023-03-21T09:44:51;34.90;;;20.02;;
46407;SDS011;32110;45.724;21.276;2023-03-21T09:47:21;31.77;;;20.05;;
46407;SDS011;32110;45.724;21.276;2023-03-21T09:49:53;30.80;;;20.55;;
46407;SDS011;32110;45.724;21.276;2023-03-21T09:52:23;37.92;;;19.30;;
46407;SDS011;32110;45.724;21.276;2023-03-21T09:54:50;34.20;;;21.20;;
46407;SDS011;32110;45.724;21.276;2023-03-21T09:57:28;34.53;;;21.02;;
46407;SDS011;32110;45.724;21.276;2023-03-21T10:02:37;36.10;;;21.08;;
46407;SDS011;32110;45.724;21.276;2023-03-21T10:05:14;36.58;;;20.27;;
46407;SDS011;32110;45.724;21.276;2023-03-21T10:07:43;32.55;;;20.60;;
46407;SDS011;32110;45.724;21.276;2023-03-21T10:10:18;36.25;;;21.77;;
46407;SDS011;32110;45.724;21.276;2023-03-21T10:12:44;33.08;;;20.13;;
46407;SDS011;32110;45.724;21.276;2023-03-21T10:15:10;36.53;;;21.13;;
46407;SDS011;32110;45.724;21.276;2023-03-21T10:17:40;29.83;;;19.77;;
46407;SDS011;32110;45.724;21.276;2023-03-21T10:22:38;32.17;;;19.27;;
46407;SDS011;32110;45.724;21.276;2023-03-21T10:25:04;31.85;;;19.48;;
46407;SDS011;32110;45.724;21.276;2023-03-21T10:27:30;34.83;;;19.27;;
46407;SDS011;32110;45.724;21.276;2023-03-21T10:29:56;28.48;;;18.77;;
46407;SDS011;32110;45.724;21.276;2023-03-21T10:32:21;33.10;;;19.00;;
46407;SDS011;32110;45.724;21.276;2023-03-21T10:34:51;32.25;;;18.67;;
46407;SDS011;32110;45.724;21.276;2023-03-21T10:37:19;28.33;;;17.15;;
46407;SDS011;32110;45.724;21.276;2023-03-21T10:39:45;29.30;;;17.83;;
46407;SDS011;32110;45.724;21.276;2023-03-21T10:42:17;29.45;;;18.35;;
46407;SDS011;32110;45.724;21.276;2023-03-21T10:44:45;28.33;;;17.05;;
46407;SDS011;32110;45.724;21.276;2023-03-21T10:47:11;29.98;;;17.30;;
46407;SDS011;32110;45.724;21.276;2023-03-21T10:49:36;25.45;;;16.20;;
46407;SDS011;32110;45.724;21.276;2023-03-21T10:52:04;25.85;;;15.98;;
46407;SDS011;32110;45.724;21.276;2023-03-21T10:54:33;28.70;;;16.50;;
46407;SDS011;32110;45.724;21.276;2023-03-21T10:57:02;24.65;;;15.45;;
46407;SDS011;32110;45.724;21.276;2023-03-21T10:59:37;22.73;;;14.82;;
46407;SDS011;32110;45.724;21.276;2023-03-21T11:02:04;23.92;;;15.13;;
46407;SDS011;32110;45.724;21.276;2023-03-21T11:04:30;25.05;;;16.27;;
46407;SDS011;32110;45.724;21.276;2023-03-21T11:06:56;24.58;;;15.02;;
46407;SDS011;32110;45.724;21.276;2023-03-21T11:09:25;21.80;;;15.55;;
46407;SDS011;32110;45.724;21.276;2023-03-21T11:12:16;20.30;;;12.60;;
46407;SDS011;32110;45.724;21.276;2023-03-21T11:14:47;20.33;;;12.57;;
46407;SDS011;32110;45.724;21.276;2023-03-21T11:22:25;19.75;;;12.38;;
46407;SDS011;32110;45.724;21.276;2023-03-21T11:24:58;17.48;;;11.63;;
46407;SDS011;32110;45.724;21.276;2023-03-21T11:27:26;19.05;;;11.75;;
46407;SDS011;32110;45.724;21.276;2023-03-21T11:29:54;21.48;;;13.05;;
46407;SDS011;32110;45.724;21.276;2023-03-21T11:32:32;19.45;;;13.65;;
46407;SDS011;32110;45.724;21.276;2023-03-21T11:35:18;21.50;;;12.13;;
46407;SDS011;32110;45.724;21.276;2023-03-21T11:37:46;25.33;;;11.68;;
46407;SDS011;32110;45.724;21.276;2023-03-21T11:42:52;16.27;;;11.07;;
46407;SDS011;32110;45.724;21.276;2023-03-21T11:45:41;18.42;;;10.95;;
46407;SDS011;32110;45.724;21.276;2023-03-21T11:48:20;15.10;;;11.20;;
46407;SDS011;32110;45.724;21.276;2023-03-21T11:50:46;15.70;;;11.45;;
46407;SDS011;32110;45.724;21.276;2023-03-21T11:55:47;14.52;;;6.45;;
46407;SDS011;32110;45.724;21.276;2023-03-21T12:01:04;10.00;;;7.63;;
46407;SDS011;32110;45.724;21.276;2023-03-21T12:03:52;11.45;;;7.60;;
46407;SDS011;32110;45.724;21.276;2023-03-21T12:14:33;15.65;;;9.30;;
46407;SDS011;32110;45.724;21.276;2023-03-21T12:25:45;9.55;;;6.78;;
46407;SDS011;32110;45.724;21.276;2023-03-21T12:34:52;7.97;;;5.90;;
46407;SDS011;32110;45.724;21.276;2023-03-21T12:39:28;9.45;;;6.93;;
46407;SDS011;32110;45.724;21.276;2023-03-21T12:44:29;7.15;;;5.70;;
46407;SDS011;32110;45.724;21.276;2023-03-21T12:50:02;9.57;;;5.45;;
46407;SDS011;32110;45.724;21.276;2023-03-21T12:52:43;11.52;;;6.00;;
46407;SDS011;32110;45.724;21.276;2023-03-21T12:57:45;9.68;;;5.50;;
46407;SDS011;32110;45.724;21.276;2023-03-21T13:00:23;9.80;;;5.72;;
46407;SDS011;32110;45.724;21.276;2023-03-21T13:02:59;8.02;;;4.78;;
46407;SDS011;32110;45.724;21.276;2023-03-21T13:10:31;6.53;;;3.97;;
46407;SDS011;32110;45.724;21.276;2023-03-21T13:15:31;7.25;;;3.88;;
46407;SDS011;32110;45.724;21.276;2023-03-21T13:21:16;9.23;;;3.97;;
46407;SDS011;32110;45.724;21.276;2023-03-21T13:24:24;6.47;;;4.20;;
46407;SDS011;32110;45.724;21.276;2023-03-21T13:26:56;5.25;;;3.67;;
46407;SDS011;32110;45.724;21.276;2023-03-21T13:31:50;7.03;;;3.90;;
46407;SDS011;32110;45.724;21.276;2023-03-21T13:34:18;7.55;;;3.60;;
46407;SDS011;32110;45.724;21.276;2023-03-21T13:36:45;5.03;;;4.20;;
46407;SDS011;32110;45.724;21.276;2023-03-21T13:39:18;8.33;;;4.50;;
46407;SDS011;32110;45.724;21.276;2023-03-21T13:41:47;7.55;;;3.60;;
46407;SDS011;32110;45.724;21.276;2023-03-21T13:46:59;7.35;;;3.95;;
46407;SDS011;32110;45.724;21.276;2023-03-21T13:52:00;5.35;;;3.67;;
46407;SDS011;32110;45.724;21.276;2023-03-21T13:55:11;6.82;;;3.40;;
46407;SDS011;32110;45.724;21.276;2023-03-21T13:57:20;3.95;;;2.90;;
46407;SDS011;32110;45.724;21.276;2023-03-21T14:00:13;7.88;;;3.85;;
46407;SDS011;32110;45.724;21.276;2023-03-21T14:03:09;6.05;;;3.92;;
46407;SDS011;32110;45.724;21.276;2023-03-21T14:05:41;6.57;;;4.03;;
46407;SDS011;32110;45.724;21.276;2023-03-21T14:08:14;7.82;;;3.92;;
46407;SDS011;32110;45.724;21.276;2023-03-21T14:10:42;7.90;;;4.43;;
46407;SDS011;32110;45.724;21.276;2023-03-21T14:13:11;8.88;;;4.15;;
46407;SDS011;32110;45.724;21.276;2023-03-21T14:15:59;6.95;;;3.55;;
46407;SDS011;32110;45.724;21.276;2023-03-21T14:18:26;5.15;;;3.28;;
46407;SDS011;32110;45.724;21.276;2023-03-21T14:20:56;6.38;;;3.75;;
46407;SDS011;32110;45.724;21.276;2023-03-21T14:23:23;7.60;;;3.17;;
46407;SDS011;32110;45.724;21.276;2023-03-21T14:25:49;7.38;;;3.80;;
46407;SDS011;32110;45.724;21.276;2023-03-21T14:28:19;4.35;;;3.30;;
46407;SDS011;32110;45.724;21.276;2023-03-21T14:30:57;8.23;;;3.25;;
46407;SDS011;32110;45.724;21.276;2023-03-21T14:33:25;5.95;;;2.95;;
46407;SDS011;32110;45.724;21.276;2023-03-21T14:35:51;6.28;;;3.20;;
46407;SDS011;32110;45.724;21.276;2023-03-21T14:38:21;7.72;;;3.35;;
46407;SDS011;32110;45.724;21.276;2023-03-21T14:40:47;4.22;;;3.00;;
46407;SDS011;32110;45.724;21.276;2023-03-21T14:43:13;5.63;;;3.22;;
46407;SDS011;32110;45.724;21.276;2023-03-21T14:45:38;5.30;;;3.47;;
46407;SDS011;32110;45.724;21.276;2023-03-21T14:48:05;9.75;;;4.53;;
46407;SDS011;32110;45.724;21.276;2023-03-21T14:52:55;8.93;;;3.63;;
46407;SDS011;32110;45.724;21.276;2023-03-21T14:55:22;9.98;;;3.50;;
46407;SDS011;32110;45.724;21.276;2023-03-21T14:57:47;9.05;;;3.20;;
46407;SDS011;32110;45.724;21.276;2023-03-21T15:00:21;7.40;;;3.75;;
46407;SDS011;32110;45.724;21.276;2023-03-21T15:02:47;6.43;;;3.45;;
46407;SDS011;32110;45.724;21.276;2023-03-21T15:05:17;11.38;;;3.75;;
46407;SDS011;32110;45.724;21.276;2023-03-21T15:07:51;3.72;;;2.90;;
46407;SDS011;32110;45.724;21.276;2023-03-21T15:10:20;5.75;;;2.83;;
46407;SDS011;32110;45.724;21.276;2023-03-21T15:12:49;6.07;;;3.20;;
46407;SDS011;32110;45.724;21.276;2023-03-21T15:15:14;6.43;;;3.65;;
46407;SDS011;32110;45.724;21.276;2023-03-21T15:17:40;5.93;;;2.60;;
46407;SDS011;32110;45.724;21.276;2023-03-21T15:20:06;10.40;;;2.88;;
46407;SDS011;32110;45.724;21.276;2023-03-21T15:22:37;3.85;;;2.75;;
46407;SDS011;32110;45.724;21.276;2023-03-21T15:25:05;3.67;;;2.67;;
46407;SDS011;32110;45.724;21.276;2023-03-21T15:27:32;6.50;;;3.45;;
46407;SDS011;32110;45.724;21.276;2023-03-21T15:29:58;4.82;;;3.13;;
46407;SDS011;32110;45.724;21.276;2023-03-21T15:32:24;6.90;;;2.78;;
46407;SDS011;32110;45.724;21.276;2023-03-21T15:34:52;5.63;;;2.67;;
46407;SDS011;32110;45.724;21.276;2023-03-21T15:37:25;3.40;;;2.70;;
46407;SDS011;32110;45.724;21.276;2023-03-21T15:39:51;7.00;;;3.08;;
46407;SDS011;32110;45.724;21.276;2023-03-21T15:44:47;6.40;;;2.75;;
46407;SDS011;32110;45.724;21.276;2023-03-21T15:47:15;5.13;;;2.45;;
46407;SDS011;32110;45.724;21.276;2023-03-21T15:49:40;3.53;;;2.22;;
46407;SDS011;32110;45.724;21.276;2023-03-21T15:52:10;6.03;;;2.25;;
46407;SDS011;32110;45.724;21.276;2023-03-21T15:55:14;2.92;;;1.90;;
46407;SDS011;32110;45.724;21.276;2023-03-21T15:57:29;2.67;;;1.88;;
46407;SDS011;32110;45.724;21.276;2023-03-21T16:00:03;5.90;;;2.20;;
46407;SDS011;32110;45.724;21.276;2023-03-21T16:02:36;3.50;;;2.13;;
46407;SDS011;32110;45.724;21.276;2023-03-21T16:07:43;10.32;;;2.50;;
46407;SDS011;32110;45.724;21.276;2023-03-21T16:10:14;5.55;;;2.67;;